createdAt,value
2023-12-29T00:00:42.625Z,84.63
2023-12-29T00:03:11.575Z,84.75
2023-12-29T00:05:40.097Z,84.65
2023-12-29T00:08:08.551Z,84.80
2023-12-29T00:10:38.147Z,84.50
2023-12-29T00:13:06.644Z,84.63
2023-12-29T00:15:35.069Z,84.86
2023-12-29T00:18:03.972Z,84.81
2023-12-29T00:20:38.254Z,84.82
2023-12-29T00:23:10.206Z,84.54
2023-12-29T00:25:38.999Z,84.86
2023-12-29T00:28:07.489Z,84.76
2023-12-29T00:30:48.127Z,84.83
2023-12-29T00:33:27.090Z,84.86
2023-12-29T00:35:55.580Z,84.82
2023-12-29T00:38:24.054Z,84.63
2023-12-29T00:40:52.463Z,84.70
2023-12-29T00:43:20.986Z,84.59
2023-12-29T00:45:49.541Z,84.81
2023-12-29T00:48:18.170Z,84.76
2023-12-29T00:50:47.957Z,84.83
2023-12-29T00:53:16.460Z,84.86
2023-12-29T00:55:44.875Z,84.92
2023-12-29T00:58:13.313Z,84.81
2023-12-29T01:00:42.595Z,84.90
2023-12-29T01:03:11.619Z,84.54
2023-12-29T01:05:40.603Z,84.90
2023-12-29T01:08:09.025Z,85.07
2023-12-29T01:10:37.924Z,84.97
2023-12-29T01:13:06.367Z,85.00
2023-12-29T01:15:35.092Z,84.91
2023-12-29T01:18:03.824Z,85.08
2023-12-29T01:20:32.650Z,84.85
2023-12-29T01:23:01.128Z,84.81
2023-12-29T01:25:29.874Z,84.80
2023-12-29T01:27:58.580Z,84.93
2023-12-29T01:30:27.136Z,84.80
2023-12-29T01:32:55.854Z,85.02
2023-12-29T01:35:24.259Z,84.99
2023-12-29T01:37:53.015Z,84.85
2023-12-29T01:40:21.432Z,85.03
2023-12-29T01:42:49.871Z,84.99
2023-12-29T01:45:24.105Z,84.84
2023-12-29T01:47:52.924Z,84.62
2023-12-29T01:50:22.969Z,84.84
2023-12-29T01:52:52.383Z,84.92
2023-12-29T01:55:23.507Z,84.90
2023-12-29T01:57:52.915Z,84.97
2023-12-29T02:00:22.972Z,85.07
2023-12-29T02:02:51.897Z,85.12
2023-12-29T02:05:22.530Z,84.73
2023-12-29T02:07:53.452Z,85.01
2023-12-29T02:10:22.121Z,84.95
2023-12-29T02:12:52.304Z,84.62
2023-12-29T02:15:22.275Z,84.74
2023-12-29T02:17:54.798Z,84.87
2023-12-29T02:20:26.216Z,85.00
2023-12-29T02:22:54.610Z,84.87
2023-12-29T02:25:23.777Z,85.02
2023-12-29T02:27:59.669Z,85.24
2023-12-29T02:30:36.751Z,85.00
2023-12-29T02:33:07.363Z,84.65
2023-12-29T02:35:44.270Z,84.78
2023-12-29T02:38:13.268Z,85.22
2023-12-29T02:40:42.105Z,85.02
2023-12-29T02:43:11.455Z,84.95
2023-12-29T02:45:40.210Z,85.03
2023-12-29T02:48:08.910Z,84.87
2023-12-29T02:50:37.604Z,85.21
2023-12-29T02:53:06.119Z,85.09
2023-12-29T02:55:34.701Z,85.14
2023-12-29T02:58:03.506Z,85.25
2023-12-29T03:00:36.515Z,85.33
2023-12-29T03:03:05.479Z,85.09
2023-12-29T03:05:34.026Z,85.26
2023-12-29T03:08:03.095Z,84.97
2023-12-29T03:10:31.826Z,85.06
2023-12-29T03:13:00.250Z,85.09
2023-12-29T03:15:28.659Z,85.32
2023-12-29T03:17:57.172Z,85.35
2023-12-29T03:20:27.049Z,85.27
2023-12-29T03:22:57.203Z,85.28
2023-12-29T03:25:25.560Z,85.09
2023-12-29T03:27:54.647Z,85.42
2023-12-29T03:30:23.941Z,85.62
2023-12-29T03:32:52.450Z,85.54
2023-12-29T03:35:20.852Z,85.15
2023-12-29T03:37:49.614Z,85.27
2023-12-29T03:40:18.272Z,85.32
2023-12-29T03:42:46.938Z,85.67
2023-12-29T03:45:15.811Z,85.48
2023-12-29T03:47:44.289Z,85.44
2023-12-29T03:50:12.872Z,85.56
2023-12-29T03:52:41.345Z,85.64
2023-12-29T03:55:10.027Z,85.67
2023-12-29T03:57:38.661Z,85.69
2023-12-29T04:00:09.398Z,85.80
2023-12-29T04:02:40.599Z,85.97
2023-12-29T04:05:10.812Z,85.65
2023-12-29T04:07:42.538Z,86.15
2023-12-29T04:10:11.259Z,85.59
2023-12-29T04:12:39.873Z,85.32
2023-12-29T04:15:08.675Z,85.73
2023-12-29T04:17:37.221Z,85.76
2023-12-29T04:20:06.811Z,86.23
2023-12-29T04:22:35.976Z,86.03
2023-12-29T04:25:04.561Z,86.18
2023-12-29T04:27:32.977Z,86.08
2023-12-29T04:30:01.400Z,86.34
2023-12-29T04:32:29.982Z,86.01
2023-12-29T04:34:58.549Z,86.08
2023-12-29T04:37:27.153Z,85.79
2023-12-29T04:39:55.653Z,85.84
2023-12-29T04:42:25.148Z,85.68
2023-12-29T04:44:53.595Z,85.94
2023-12-29T04:47:22.081Z,86.36
2023-12-29T04:49:50.619Z,86.21
2023-12-29T04:52:19.110Z,86.09
2023-12-29T04:54:48.370Z,85.73
2023-12-29T04:57:18.065Z,85.70
2023-12-29T04:59:46.402Z,85.97
2023-12-29T05:02:15.303Z,86.36
2023-12-29T05:04:44.282Z,86.32
2023-12-29T05:07:13.359Z,86.04
2023-12-29T05:09:41.887Z,86.10
2023-12-29T05:12:10.278Z,86.23
2023-12-29T05:14:38.780Z,86.20
2023-12-29T05:17:07.165Z,85.97
2023-12-29T05:19:35.608Z,86.10
2023-12-29T05:22:04.605Z,86.11
2023-12-29T05:24:33.109Z,86.49
2023-12-29T05:27:01.579Z,86.47
2023-12-29T05:29:30.080Z,86.15
2023-12-29T05:31:59.007Z,86.48
2023-12-29T05:34:27.529Z,86.57
2023-12-29T05:36:57.295Z,86.02
2023-12-29T05:39:26.191Z,86.19
2023-12-29T05:41:54.690Z,86.43
2023-12-29T05:44:23.246Z,86.64
2023-12-29T05:46:52.722Z,86.44
2023-12-29T05:49:21.365Z,86.81
2023-12-29T05:51:49.897Z,86.24
2023-12-29T05:54:18.260Z,86.22
2023-12-29T05:56:46.827Z,86.37
2023-12-29T05:59:15.469Z,86.32
2023-12-29T06:01:45.811Z,86.45
2023-12-29T06:04:14.669Z,86.19
2023-12-29T06:06:47.569Z,86.53
2023-12-29T06:09:16.165Z,86.40
2023-12-29T06:11:44.603Z,86.38
2023-12-29T06:14:13.171Z,86.21
2023-12-29T06:16:41.650Z,86.40
2023-12-29T06:19:10.658Z,86.18
2023-12-29T06:21:43.600Z,86.38
2023-12-29T06:24:13.091Z,86.49
2023-12-29T06:26:46.209Z,86.34
2023-12-29T06:29:14.652Z,86.89
2023-12-29T06:31:44.257Z,86.35
2023-12-29T06:34:13.205Z,86.29
2023-12-29T06:36:42.662Z,86.51
2023-12-29T06:39:11.133Z,86.52
2023-12-29T06:41:39.620Z,86.67
2023-12-29T06:44:08.074Z,86.22
2023-12-29T06:46:38.645Z,86.41
2023-12-29T06:49:09.607Z,86.87
2023-12-29T06:51:40.683Z,86.32
2023-12-29T06:54:09.422Z,87.05
2023-12-29T06:56:37.860Z,86.79
2023-12-29T06:59:06.424Z,86.76
2023-12-29T07:01:35.783Z,86.24
2023-12-29T07:04:04.845Z,86.42
2023-12-29T07:06:33.390Z,86.64
2023-12-29T07:09:02.683Z,86.34
2023-12-29T07:11:31.176Z,86.32
2023-12-29T07:13:59.719Z,86.35
2023-12-29T07:16:28.477Z,87.07
2023-12-29T07:18:57.228Z,86.84
2023-12-29T07:21:25.978Z,86.38
2023-12-29T07:23:54.584Z,86.75
2023-12-29T07:26:23.077Z,86.63
2023-12-29T07:28:55.749Z,86.62
2023-12-29T07:31:24.468Z,86.47
2023-12-29T07:33:53.125Z,86.34
2023-12-29T07:36:21.663Z,86.80
2023-12-29T07:38:51.257Z,86.60
2023-12-29T07:41:20.555Z,86.60
2023-12-29T08:49:39.494Z,86.83
2023-12-29T08:52:08.628Z,87.06
2023-12-29T08:54:38.423Z,87.27
2023-12-29T08:57:08.544Z,86.94
2023-12-29T08:59:37.191Z,86.76
2023-12-29T09:02:06.521Z,86.93
2023-12-29T09:04:35.314Z,86.90
2023-12-29T09:07:06.304Z,86.86
2023-12-29T09:09:35.231Z,87.16
2023-12-29T09:12:03.646Z,86.76
2023-12-29T09:14:34.252Z,86.95
2023-12-29T09:17:02.921Z,86.93
2023-12-29T09:19:39.126Z,86.97
2023-12-29T09:22:09.576Z,87.01
2023-12-29T09:24:38.088Z,86.91
2023-12-29T09:27:06.756Z,86.90
2023-12-29T09:29:35.162Z,86.89
2023-12-29T09:32:03.965Z,86.89
2023-12-29T09:34:32.531Z,86.91
2023-12-29T09:37:01.040Z,87.36
2023-12-29T09:39:30.151Z,87.20
2023-12-29T09:42:00.291Z,86.81
2023-12-29T09:44:30.180Z,87.01
2023-12-29T09:47:02.531Z,86.96
2023-12-29T09:49:49.264Z,87.02
2023-12-29T09:52:18.849Z,87.11
2023-12-29T09:54:48.083Z,86.98
2023-12-29T09:57:16.587Z,86.81
2023-12-29T09:59:45.082Z,86.90
2023-12-29T10:02:17.857Z,86.98
2023-12-29T10:04:47.219Z,86.94
2023-12-29T10:07:21.211Z,87.08
2023-12-29T10:09:53.375Z,87.30
2023-12-29T10:12:22.736Z,86.72
2023-12-29T10:14:59.032Z,86.90
2023-12-29T10:17:42.930Z,87.14
2023-12-29T10:20:23.187Z,87.27
2023-12-29T10:22:51.627Z,86.92
2023-12-29T10:25:20.770Z,86.95
2023-12-29T10:27:49.987Z,86.82
2023-12-29T10:30:25.268Z,87.14
2023-12-29T10:32:57.975Z,87.51
2023-12-29T10:35:28.561Z,86.77
2023-12-29T10:38:09.674Z,87.36
2023-12-29T10:40:38.091Z,86.75
2023-12-29T10:43:09.259Z,86.74
2023-12-29T10:45:40.790Z,87.38
2023-12-29T10:48:10.085Z,86.92
2023-12-29T10:50:47.091Z,87.04
2023-12-29T10:53:16.835Z,86.95
2023-12-29T10:55:46.278Z,86.92
2023-12-29T10:58:17.714Z,86.79
2023-12-29T11:00:48.210Z,86.84
2023-12-29T11:03:18.213Z,86.90
2023-12-29T11:05:47.091Z,87.27
2023-12-29T11:08:20.548Z,87.64
2023-12-29T11:10:52.578Z,87.40
2023-12-29T11:13:21.613Z,87.00
2023-12-29T11:15:50.257Z,87.03
2023-12-29T11:18:19.633Z,86.88
2023-12-29T11:20:50.645Z,86.98
2023-12-29T11:23:21.013Z,86.98
2023-12-29T11:25:50.514Z,86.67
2023-12-29T11:28:19.721Z,86.83
2023-12-29T11:30:48.420Z,86.93
2023-12-29T11:33:20.637Z,86.66
2023-12-29T11:35:58.475Z,87.08
2023-12-29T11:38:45.471Z,86.92
2023-12-29T11:41:14.350Z,87.46
2023-12-29T11:43:42.758Z,87.00
2023-12-29T11:46:31.016Z,87.18
2023-12-29T11:49:00.343Z,86.89
2023-12-29T11:51:29.958Z,87.20
2023-12-29T11:53:58.697Z,86.95
2023-12-29T11:56:32.295Z,87.16
2023-12-29T11:59:16.837Z,87.19
2023-12-29T12:01:46.780Z,86.81
2023-12-29T12:04:34.558Z,86.66
2023-12-29T12:07:03.709Z,87.22
2023-12-29T12:09:32.195Z,87.40
2023-12-29T12:12:00.734Z,86.70
2023-12-29T12:15:04.721Z,87.05
2023-12-29T12:17:34.335Z,87.44
2023-12-29T12:20:10.583Z,87.10
2023-12-29T12:22:39.772Z,87.25
2023-12-29T12:25:08.765Z,87.46
2023-12-29T12:27:39.331Z,87.87
2023-12-29T12:30:08.362Z,87.55
2023-12-29T12:32:36.789Z,87.67
2023-12-29T12:35:05.626Z,87.34
2023-12-29T12:37:34.091Z,87.61
2023-12-29T12:40:05.510Z,87.05
2023-12-29T12:42:34.712Z,87.17
2023-12-29T12:45:13.923Z,87.38
2023-12-29T12:47:53.203Z,87.32
2023-12-29T12:50:22.046Z,87.61
2023-12-29T12:52:50.799Z,87.58
2023-12-29T12:55:19.658Z,87.05
2023-12-29T12:57:48.580Z,87.29
2023-12-29T13:00:18.858Z,86.89
2023-12-29T13:02:48.252Z,87.12
2023-12-29T13:05:17.842Z,87.04
2023-12-29T13:07:46.894Z,87.58
2023-12-29T13:10:15.828Z,87.03
2023-12-29T13:12:54.167Z,87.29
2023-12-29T13:15:23.108Z,87.31
2023-12-29T13:17:52.463Z,87.43
2023-12-29T13:20:21.089Z,87.28
2023-12-29T13:22:51.852Z,87.31
2023-12-29T13:25:22.199Z,87.07
2023-12-29T13:27:51.272Z,86.90
2023-12-29T13:30:21.256Z,87.28
2023-12-29T13:32:51.056Z,87.70
2023-12-29T13:35:26.365Z,87.27
2023-12-29T13:38:17.845Z,87.03
2023-12-29T13:40:55.574Z,87.10
2023-12-29T13:43:24.664Z,87.01
2023-12-29T13:45:53.425Z,87.58
2023-12-29T13:48:23.458Z,87.01
2023-12-29T13:50:52.621Z,87.14
2023-12-29T13:53:21.892Z,87.57
2023-12-29T13:55:50.545Z,87.49
2023-12-29T13:58:19.521Z,87.08
2023-12-29T14:00:58.439Z,87.03
2023-12-29T14:03:36.711Z,86.98
2023-12-29T14:06:10.172Z,87.57
2023-12-29T14:08:47.083Z,87.66
2023-12-29T14:11:17.794Z,87.11
2023-12-29T14:13:46.812Z,87.73
2023-12-29T14:16:22.333Z,87.83
2023-12-29T14:19:01.197Z,87.39
2023-12-29T14:21:30.508Z,87.23
2023-12-29T14:24:03.178Z,87.48
2023-12-29T14:26:31.824Z,88.08
2023-12-29T14:29:04.313Z,87.76
2023-12-29T14:31:34.869Z,87.83
2023-12-29T14:34:03.526Z,87.39
2023-12-29T14:36:32.992Z,87.52
2023-12-29T14:39:01.473Z,87.35
2023-12-29T14:41:30.286Z,87.45
2023-12-29T14:43:58.837Z,87.41
2023-12-29T14:46:27.436Z,87.39
2023-12-29T14:48:56.396Z,87.85
2023-12-29T14:51:24.982Z,87.99
2023-12-29T14:53:53.434Z,88.03
2023-12-29T14:56:21.974Z,87.71
2023-12-29T14:58:50.447Z,87.76
2023-12-29T15:01:20.362Z,87.30
2023-12-29T15:03:49.179Z,87.27
2023-12-29T15:06:17.698Z,87.48
2023-12-29T15:08:46.119Z,87.89
2023-12-29T15:11:14.586Z,88.02
2023-12-29T15:13:44.268Z,87.74
2023-12-29T15:16:13.121Z,87.39
2023-12-29T15:18:41.762Z,86.97
2023-12-29T15:21:10.408Z,87.13
2023-12-29T15:23:38.856Z,87.62
2023-12-29T15:26:07.842Z,87.09
2023-12-29T15:28:36.264Z,87.18
2023-12-29T15:31:05.197Z,87.32
2023-12-29T15:33:33.768Z,87.10
2023-12-29T15:36:02.302Z,87.11
2023-12-29T15:38:31.178Z,87.56
2023-12-29T15:40:59.667Z,87.34
2023-12-29T15:43:31.075Z,87.67
2023-12-29T15:45:59.571Z,87.29
2023-12-29T15:48:28.521Z,87.36
2023-12-29T15:50:58.009Z,87.36
2023-12-29T15:53:26.465Z,87.28
2023-12-29T15:55:54.892Z,87.12
2023-12-29T15:58:23.536Z,87.04
2023-12-29T16:00:53.781Z,87.05
2023-12-29T16:03:22.459Z,87.41
2023-12-29T16:05:51.045Z,87.21
2023-12-29T16:08:19.464Z,87.25
2023-12-29T16:10:47.972Z,86.95
2023-12-29T16:13:16.444Z,86.66
2023-12-29T16:15:44.823Z,86.77
2023-12-29T16:18:16.344Z,86.58
2023-12-29T16:20:45.016Z,87.55
2023-12-29T16:23:13.772Z,86.84
2023-12-29T16:25:42.341Z,87.13
2023-12-29T16:28:10.855Z,87.11
2023-12-29T16:30:39.551Z,87.12
2023-12-29T16:33:08.253Z,87.08
2023-12-29T16:35:36.775Z,86.82
2023-12-29T16:38:07.003Z,87.26
2023-12-29T16:40:35.591Z,87.08
2023-12-29T16:43:04.281Z,87.03
2023-12-29T16:45:32.945Z,87.04
2023-12-29T16:48:04.427Z,87.51
2023-12-29T16:50:32.948Z,87.52
2023-12-29T16:53:01.714Z,87.36
2023-12-29T16:55:30.472Z,87.13
2023-12-29T16:57:59.088Z,87.08
2023-12-29T17:00:29.412Z,87.41
2023-12-29T17:02:58.110Z,86.94
2023-12-29T17:05:26.671Z,87.12
2023-12-29T17:07:55.116Z,87.62
2023-12-29T17:10:23.614Z,87.38
2023-12-29T17:12:53.529Z,86.86
2023-12-29T17:15:23.249Z,86.86
2023-12-29T17:17:52.345Z,86.99
2023-12-29T17:20:22.719Z,86.95
2023-12-29T17:22:51.033Z,86.87
2023-12-29T17:25:19.564Z,86.87
2023-12-29T17:27:49.166Z,87.24
2023-12-29T17:30:18.337Z,86.85
2023-12-29T17:32:46.856Z,86.90
2023-12-29T17:35:15.439Z,87.14
2023-12-29T17:37:43.943Z,86.81
2023-12-29T17:40:12.707Z,87.16
2023-12-29T17:42:41.397Z,86.67
2023-12-29T17:45:09.874Z,86.79
2023-12-29T17:47:38.496Z,87.01
2023-12-29T17:50:07.438Z,87.05
2023-12-29T17:52:35.922Z,87.13
2023-12-29T17:55:04.466Z,87.27
2023-12-29T17:57:32.922Z,87.38
2023-12-29T18:00:01.305Z,87.36
2023-12-29T18:02:33.840Z,87.14
2023-12-29T18:05:02.464Z,87.03
2023-12-29T18:07:31.695Z,86.85
2023-12-29T18:10:00.366Z,86.92
2023-12-29T18:12:29.461Z,86.49
2023-12-29T18:14:57.962Z,86.73
2023-12-29T18:17:27.346Z,86.43
2023-12-29T18:19:55.931Z,86.46
2023-12-29T18:22:24.398Z,86.94
2023-12-29T18:24:52.935Z,86.45
2023-12-29T18:27:21.592Z,86.43
2023-12-29T18:29:49.986Z,86.31
2023-12-29T18:32:21.781Z,86.33
2023-12-29T18:34:51.644Z,86.35
2023-12-29T18:37:21.784Z,86.69
2023-12-29T18:39:50.729Z,86.67
2023-12-29T18:42:19.198Z,86.58
2023-12-29T18:44:47.790Z,86.36
2023-12-29T18:47:16.144Z,86.34
2023-12-29T18:49:44.666Z,86.31
2023-12-29T18:52:13.425Z,85.79
2023-12-29T18:54:42.045Z,85.79
2023-12-29T18:57:10.467Z,85.78
2023-12-29T18:59:38.887Z,86.01
2023-12-29T19:02:13.409Z,85.75
2023-12-29T19:04:42.387Z,85.91
2023-12-29T19:07:12.144Z,85.61
2023-12-29T19:09:41.047Z,85.67
2023-12-29T19:12:09.538Z,85.56
2023-12-29T19:14:38.176Z,85.64
2023-12-29T19:17:07.850Z,85.62
2023-12-29T19:19:36.712Z,85.37
2023-12-29T19:22:05.293Z,85.52
2023-12-29T19:24:37.248Z,85.29
2023-12-29T19:27:06.783Z,85.43
2023-12-29T19:29:35.728Z,85.31
2023-12-29T19:32:04.432Z,85.23
2023-12-29T19:34:32.971Z,85.04
2023-12-29T19:37:01.676Z,85.22
2023-12-29T19:39:30.156Z,85.41
2023-12-29T19:41:58.681Z,85.27
2023-12-29T19:44:27.086Z,85.12
2023-12-29T19:46:55.649Z,85.21
2023-12-29T19:49:24.149Z,85.22
2023-12-29T19:51:52.618Z,85.24
2023-12-29T19:54:21.758Z,85.43
2023-12-29T19:56:54.562Z,85.20
2023-12-29T19:59:23.014Z,85.71
2023-12-29T20:01:52.713Z,85.74
2023-12-29T20:04:21.743Z,85.98
2023-12-29T20:06:50.301Z,85.92
2023-12-29T20:09:18.788Z,86.01
2023-12-29T20:11:47.397Z,85.95
2023-12-29T20:14:15.835Z,85.73
2023-12-29T20:16:44.832Z,85.71
2023-12-29T20:19:13.504Z,85.31
2023-12-29T20:21:42.073Z,85.22
2023-12-29T20:24:11.676Z,85.31
2023-12-29T20:26:40.482Z,85.22
2023-12-29T20:29:09.630Z,85.00
2023-12-29T20:31:38.169Z,85.02
2023-12-29T20:34:06.916Z,85.10
2023-12-29T20:36:35.377Z,84.64
2023-12-29T20:39:03.908Z,84.76
2023-12-29T20:41:33.014Z,84.88
2023-12-29T20:44:01.499Z,85.09
2023-12-29T20:46:29.935Z,85.01
2023-12-29T20:48:58.424Z,85.23
2023-12-29T20:51:28.297Z,85.37
2023-12-29T20:53:57.284Z,85.46
2023-12-29T20:56:26.459Z,85.58
2023-12-29T20:58:56.773Z,85.94
2023-12-29T21:01:27.398Z,85.73
2023-12-29T21:03:56.186Z,85.78
2023-12-29T21:06:24.719Z,85.83
2023-12-29T21:09:00.040Z,85.49
2023-12-29T21:11:28.685Z,85.73
2023-12-29T21:13:57.376Z,85.67
2023-12-29T21:16:25.954Z,85.67
2023-12-29T21:18:55.750Z,85.92
2023-12-29T21:21:25.918Z,85.40
2023-12-29T21:23:56.785Z,85.36
2023-12-29T21:26:25.324Z,85.85
2023-12-29T21:28:53.742Z,85.63
2023-12-29T21:31:22.419Z,85.64
2023-12-29T21:33:51.276Z,85.54
2023-12-29T21:36:30.336Z,85.55
2023-12-29T21:38:59.514Z,85.31
2023-12-29T21:41:29.231Z,85.19
2023-12-29T21:43:57.664Z,85.27
2023-12-29T21:46:26.133Z,85.48
2023-12-29T21:48:54.612Z,85.51
2023-12-29T21:51:26.512Z,85.49
2023-12-29T21:53:55.006Z,85.42
2023-12-29T21:56:23.514Z,85.64
2023-12-29T21:58:53.917Z,85.46
2023-12-29T22:01:29.401Z,85.19
2023-12-29T22:03:58.430Z,85.10
2023-12-29T22:06:27.157Z,85.00
2023-12-29T22:08:55.571Z,85.00
2023-12-29T22:11:24.347Z,85.05
2023-12-29T22:13:52.967Z,84.98
2023-12-29T22:16:21.781Z,85.14
2023-12-29T22:18:50.471Z,85.04
2023-12-29T22:21:19.672Z,85.23
2023-12-29T22:23:48.785Z,84.97
2023-12-29T22:26:18.305Z,85.07
2023-12-29T22:28:47.784Z,85.18
2023-12-29T22:31:16.881Z,85.16
2023-12-29T22:33:46.263Z,84.98
2023-12-29T22:36:16.380Z,85.02
2023-12-29T22:38:45.447Z,85.22
2023-12-29T22:41:15.775Z,85.38
2023-12-29T22:43:44.301Z,85.19
2023-12-29T22:46:20.600Z,85.04
2023-12-29T22:48:53.141Z,85.15
2023-12-29T22:51:21.718Z,85.51
2023-12-29T22:53:50.192Z,85.53
2023-12-29T22:56:19.580Z,85.47
2023-12-29T22:58:48.215Z,85.41
2023-12-29T23:01:18.488Z,85.09
2023-12-29T23:03:48.259Z,85.00
2023-12-29T23:06:17.137Z,85.12
2023-12-29T23:08:45.694Z,85.16
2023-12-29T23:11:14.179Z,84.90
2023-12-29T23:13:42.918Z,85.04
2023-12-29T23:16:11.618Z,85.09
2023-12-29T23:18:41.583Z,85.35
2023-12-29T23:21:13.596Z,85.01
2023-12-29T23:23:42.187Z,85.14
2023-12-29T23:26:10.493Z,85.16
2023-12-29T23:28:39.407Z,85.34
2023-12-29T23:31:11.623Z,84.98
2023-12-29T23:33:40.191Z,85.29
2023-12-29T23:36:08.877Z,85.16
2023-12-29T23:38:37.320Z,85.17
2023-12-29T23:41:05.806Z,85.19
2023-12-29T23:43:34.265Z,85.22
2023-12-29T23:46:02.830Z,85.02
2023-12-29T23:48:31.854Z,85.02
2023-12-29T23:51:00.437Z,84.89
2023-12-29T23:53:28.975Z,85.33
2023-12-29T23:55:57.571Z,85.33
2023-12-29T23:58:26.118Z,85.21
